sensor_id;sensor_type;location;lat;lon;timestamp;P1;durP1;ratioP1;P2;durP2;ratioP2
71671;SDS011;62112;45.638;11.714;2022-12-29T00:01:45;14.70;;;10.05;;
71671;SDS011;62112;45.638;11.714;2022-12-29T00:04:12;16.45;;;10.10;;
71671;SDS011;62112;45.638;11.714;2022-12-29T00:06:39;16.25;;;10.52;;
71671;SDS011;62112;45.638;11.714;2022-12-29T00:09:06;14.10;;;9.43;;
71671;SDS011;62112;45.638;11.714;2022-12-29T00:11:32;15.27;;;9.68;;
71671;SDS011;62112;45.638;11.714;2022-12-29T00:13:58;15.68;;;9.93;;
71671;SDS011;62112;45.638;11.714;2022-12-29T00:16:43;14.75;;;10.07;;
71671;SDS011;62112;45.638;11.714;2022-12-29T00:19:10;15.03;;;9.77;;
71671;SDS011;62112;45.638;11.714;2022-12-29T00:21:56;15.40;;;10.30;;
71671;SDS011;62112;45.638;11.714;2022-12-29T00:24:41;16.00;;;10.00;;
71671;SDS011;62112;45.638;11.714;2022-12-29T00:27:20;15.88;;;10.07;;
71671;SDS011;62112;45.638;11.714;2022-12-29T00:30:25;15.13;;;9.48;;
71671;SDS011;62112;45.638;11.714;2022-12-29T00:33:09;16.97;;;9.77;;
71671;SDS011;62112;45.638;11.714;2022-12-29T00:36:01;15.63;;;10.05;;
71671;SDS011;62112;45.638;11.714;2022-12-29T00:38:40;14.65;;;9.73;;
71671;SDS011;62112;45.638;11.714;2022-12-29T00:41:28;16.23;;;10.30;;
71671;SDS011;62112;45.638;11.714;2022-12-29T00:44:13;15.20;;;9.70;;
71671;SDS011;62112;45.638;11.714;2022-12-29T00:46:39;16.00;;;10.30;;
71671;SDS011;62112;45.638;11.714;2022-12-29T00:49:07;15.90;;;9.88;;
71671;SDS011;62112;45.638;11.714;2022-12-29T00:51:53;14.57;;;9.35;;
71671;SDS011;62112;45.638;11.714;2022-12-29T00:54:20;15.88;;;9.93;;
71671;SDS011;62112;45.638;11.714;2022-12-29T00:56:50;15.60;;;10.07;;
71671;SDS011;62112;45.638;11.714;2022-12-29T00:59:18;15.27;;;10.33;;
71671;SDS011;62112;45.638;11.714;2022-12-29T01:01:45;14.32;;;9.63;;
71671;SDS011;62112;45.638;11.714;2022-12-29T01:04:12;14.38;;;9.57;;
71671;SDS011;62112;45.638;11.714;2022-12-29T01:06:39;14.68;;;9.85;;
71671;SDS011;62112;45.638;11.714;2022-12-29T01:09:05;14.80;;;9.80;;
71671;SDS011;62112;45.638;11.714;2022-12-29T01:11:51;14.53;;;9.27;;
71671;SDS011;62112;45.638;11.714;2022-12-29T01:14:17;14.20;;;9.88;;
71671;SDS011;62112;45.638;11.714;2022-12-29T01:16:44;14.93;;;9.80;;
71671;SDS011;62112;45.638;11.714;2022-12-29T01:19:11;15.45;;;9.95;;
71671;SDS011;62112;45.638;11.714;2022-12-29T01:21:37;16.05;;;9.70;;
71671;SDS011;62112;45.638;11.714;2022-12-29T01:24:03;13.77;;;9.47;;
71671;SDS011;62112;45.638;11.714;2022-12-29T01:26:29;14.77;;;9.70;;
71671;SDS011;62112;45.638;11.714;2022-12-29T01:28:55;13.98;;;9.63;;
71671;SDS011;62112;45.638;11.714;2022-12-29T01:31:21;15.30;;;9.90;;
71671;SDS011;62112;45.638;11.714;2022-12-29T01:33:46;14.18;;;9.80;;
71671;SDS011;62112;45.638;11.714;2022-12-29T01:36:13;14.97;;;10.00;;
71671;SDS011;62112;45.638;11.714;2022-12-29T01:38:41;15.25;;;9.60;;
71671;SDS011;62112;45.638;11.714;2022-12-29T01:41:08;14.75;;;9.50;;
71671;SDS011;62112;45.638;11.714;2022-12-29T01:43:38;13.90;;;9.35;;
71671;SDS011;62112;45.638;11.714;2022-12-29T01:46:04;14.98;;;9.90;;
71671;SDS011;62112;45.638;11.714;2022-12-29T01:48:43;15.07;;;9.60;;
71671;SDS011;62112;45.638;11.714;2022-12-29T01:51:13;14.13;;;9.50;;
71671;SDS011;62112;45.638;11.714;2022-12-29T01:53:39;14.05;;;9.48;;
71671;SDS011;62112;45.638;11.714;2022-12-29T01:56:06;14.35;;;9.32;;
71671;SDS011;62112;45.638;11.714;2022-12-29T01:58:37;14.73;;;9.77;;
71671;SDS011;62112;45.638;11.714;2022-12-29T02:01:07;13.82;;;9.25;;
71671;SDS011;62112;45.638;11.714;2022-12-29T02:03:33;13.60;;;9.20;;
71671;SDS011;62112;45.638;11.714;2022-12-29T02:06:02;15.02;;;9.55;;
71671;SDS011;62112;45.638;11.714;2022-12-29T02:08:33;15.47;;;9.77;;
71671;SDS011;62112;45.638;11.714;2022-12-29T02:10:59;14.18;;;9.10;;
71671;SDS011;62112;45.638;11.714;2022-12-29T02:13:26;13.55;;;8.82;;
71671;SDS011;62112;45.638;11.714;2022-12-29T02:35:07;14.03;;;9.03;;
71671;SDS011;62112;45.638;11.714;2022-12-29T02:37:51;13.23;;;9.20;;
71671;SDS011;62112;45.638;11.714;2022-12-29T02:45:51;14.40;;;9.32;;
71671;SDS011;62112;45.638;11.714;2022-12-29T02:48:32;13.87;;;9.00;;
71671;SDS011;62112;45.638;11.714;2022-12-29T02:51:18;13.48;;;9.50;;
71671;SDS011;62112;45.638;11.714;2022-12-29T02:53:50;14.27;;;9.65;;
71671;SDS011;62112;45.638;11.714;2022-12-29T02:56:37;15.13;;;9.43;;
71671;SDS011;62112;45.638;11.714;2022-12-29T02:59:03;14.30;;;9.27;;
71671;SDS011;62112;45.638;11.714;2022-12-29T03:07:30;13.68;;;9.48;;
71671;SDS011;62112;45.638;11.714;2022-12-29T03:10:08;13.75;;;9.07;;
71671;SDS011;62112;45.638;11.714;2022-12-29T03:13:01;14.18;;;9.23;;
71671;SDS011;62112;45.638;11.714;2022-12-29T03:16:01;14.87;;;9.50;;
71671;SDS011;62112;45.638;11.714;2022-12-29T03:24:10;13.63;;;9.07;;
71671;SDS011;62112;45.638;11.714;2022-12-29T03:26:37;14.40;;;9.55;;
71671;SDS011;62112;45.638;11.714;2022-12-29T03:29:02;14.63;;;9.57;;
71671;SDS011;62112;45.638;11.714;2022-12-29T03:31:30;14.30;;;9.50;;
71671;SDS011;62112;45.638;11.714;2022-12-29T03:33:56;14.30;;;9.27;;
71671;SDS011;62112;45.638;11.714;2022-12-29T03:36:26;15.23;;;9.50;;
71671;SDS011;62112;45.638;11.714;2022-12-29T03:39:08;14.30;;;9.37;;
71671;SDS011;62112;45.638;11.714;2022-12-29T03:41:37;14.27;;;9.25;;
71671;SDS011;62112;45.638;11.714;2022-12-29T03:44:05;13.20;;;9.18;;
71671;SDS011;62112;45.638;11.714;2022-12-29T03:46:32;14.23;;;9.40;;
71671;SDS011;62112;45.638;11.714;2022-12-29T03:48:58;12.43;;;8.90;;
71671;SDS011;62112;45.638;11.714;2022-12-29T03:51:23;13.87;;;9.40;;
71671;SDS011;62112;45.638;11.714;2022-12-29T03:53:49;14.45;;;9.48;;
71671;SDS011;62112;45.638;11.714;2022-12-29T03:56:15;14.30;;;9.30;;
71671;SDS011;62112;45.638;11.714;2022-12-29T03:58:41;13.00;;;8.82;;
71671;SDS011;62112;45.638;11.714;2022-12-29T04:01:07;14.93;;;9.20;;
71671;SDS011;62112;45.638;11.714;2022-12-29T04:03:32;13.87;;;9.57;;
71671;SDS011;62112;45.638;11.714;2022-12-29T04:05:58;15.45;;;9.43;;
71671;SDS011;62112;45.638;11.714;2022-12-29T04:08:24;13.38;;;8.70;;
71671;SDS011;62112;45.638;11.714;2022-12-29T04:10:50;13.60;;;9.17;;
71671;SDS011;62112;45.638;11.714;2022-12-29T04:13:16;13.80;;;9.00;;
71671;SDS011;62112;45.638;11.714;2022-12-29T04:15:42;13.45;;;8.55;;
71671;SDS011;62112;45.638;11.714;2022-12-29T04:18:10;14.90;;;9.30;;
71671;SDS011;62112;45.638;11.714;2022-12-29T04:20:36;14.25;;;9.57;;
71671;SDS011;62112;45.638;11.714;2022-12-29T04:23:21;14.25;;;9.13;;
71671;SDS011;62112;45.638;11.714;2022-12-29T04:25:47;13.73;;;8.95;;
71671;SDS011;62112;45.638;11.714;2022-12-29T04:28:13;13.47;;;9.00;;
71671;SDS011;62112;45.638;11.714;2022-12-29T04:30:40;13.70;;;9.05;;
71671;SDS011;62112;45.638;11.714;2022-12-29T04:33:07;13.70;;;8.80;;
71671;SDS011;62112;45.638;11.714;2022-12-29T04:35:33;13.40;;;9.13;;
71671;SDS011;62112;45.638;11.714;2022-12-29T04:37:59;14.43;;;9.40;;
71671;SDS011;62112;45.638;11.714;2022-12-29T04:40:25;14.27;;;9.02;;
71671;SDS011;62112;45.638;11.714;2022-12-29T04:42:51;14.20;;;9.00;;
71671;SDS011;62112;45.638;11.714;2022-12-29T04:45:17;13.63;;;9.07;;
71671;SDS011;62112;45.638;11.714;2022-12-29T04:47:43;13.68;;;9.35;;
71671;SDS011;62112;45.638;11.714;2022-12-29T04:50:09;13.63;;;9.00;;
71671;SDS011;62112;45.638;11.714;2022-12-29T04:52:35;14.83;;;9.27;;
71671;SDS011;62112;45.638;11.714;2022-12-29T04:55:01;14.10;;;9.47;;
71671;SDS011;62112;45.638;11.714;2022-12-29T04:57:27;12.43;;;8.63;;
71671;SDS011;62112;45.638;11.714;2022-12-29T04:59:53;15.45;;;9.45;;
71671;SDS011;62112;45.638;11.714;2022-12-29T05:02:18;12.90;;;8.68;;
71671;SDS011;62112;45.638;11.714;2022-12-29T05:04:44;12.37;;;8.57;;
71671;SDS011;62112;45.638;11.714;2022-12-29T05:07:12;14.20;;;9.07;;
71671;SDS011;62112;45.638;11.714;2022-12-29T05:09:38;13.40;;;8.95;;
71671;SDS011;62112;45.638;11.714;2022-12-29T05:12:04;13.80;;;9.13;;
71671;SDS011;62112;45.638;11.714;2022-12-29T05:14:30;14.27;;;8.53;;
71671;SDS011;62112;45.638;11.714;2022-12-29T05:16:55;14.55;;;8.52;;
71671;SDS011;62112;45.638;11.714;2022-12-29T05:19:21;12.73;;;8.82;;
71671;SDS011;62112;45.638;11.714;2022-12-29T05:21:47;12.70;;;8.47;;
71671;SDS011;62112;45.638;11.714;2022-12-29T05:24:13;13.25;;;8.95;;
71671;SDS011;62112;45.638;11.714;2022-12-29T05:26:40;13.48;;;9.10;;
71671;SDS011;62112;45.638;11.714;2022-12-29T05:29:06;13.50;;;8.43;;
71671;SDS011;62112;45.638;11.714;2022-12-29T05:31:32;13.35;;;8.68;;
71671;SDS011;62112;45.638;11.714;2022-12-29T05:34:00;13.02;;;8.85;;
71671;SDS011;62112;45.638;11.714;2022-12-29T05:36:26;12.65;;;8.43;;
71671;SDS011;62112;45.638;11.714;2022-12-29T05:38:52;13.87;;;9.10;;
71671;SDS011;62112;45.638;11.714;2022-12-29T05:41:18;13.38;;;8.82;;
71671;SDS011;62112;45.638;11.714;2022-12-29T05:43:44;13.07;;;8.75;;
71671;SDS011;62112;45.638;11.714;2022-12-29T05:46:10;13.27;;;8.77;;
71671;SDS011;62112;45.638;11.714;2022-12-29T05:48:36;13.27;;;8.90;;
71671;SDS011;62112;45.638;11.714;2022-12-29T05:51:01;13.20;;;8.85;;
71671;SDS011;62112;45.638;11.714;2022-12-29T05:53:27;14.27;;;9.13;;
71671;SDS011;62112;45.638;11.714;2022-12-29T05:55:53;13.77;;;8.90;;
71671;SDS011;62112;45.638;11.714;2022-12-29T05:58:19;13.23;;;8.43;;
71671;SDS011;62112;45.638;11.714;2022-12-29T06:00:45;13.33;;;8.73;;
71671;SDS011;62112;45.638;11.714;2022-12-29T06:03:10;13.82;;;8.90;;
71671;SDS011;62112;45.638;11.714;2022-12-29T06:05:36;12.20;;;8.43;;
71671;SDS011;62112;45.638;11.714;2022-12-29T06:08:02;12.53;;;8.53;;
71671;SDS011;62112;45.638;11.714;2022-12-29T06:10:28;13.25;;;8.50;;
71671;SDS011;62112;45.638;11.714;2022-12-29T06:12:54;12.93;;;8.65;;
71671;SDS011;62112;45.638;11.714;2022-12-29T06:15:20;12.55;;;8.70;;
71671;SDS011;62112;45.638;11.714;2022-12-29T06:17:46;13.50;;;8.40;;
71671;SDS011;62112;45.638;11.714;2022-12-29T06:20:12;13.95;;;8.93;;
71671;SDS011;62112;45.638;11.714;2022-12-29T06:22:38;13.87;;;8.83;;
71671;SDS011;62112;45.638;11.714;2022-12-29T06:25:04;13.43;;;8.37;;
71671;SDS011;62112;45.638;11.714;2022-12-29T06:27:30;12.82;;;8.98;;
71671;SDS011;62112;45.638;11.714;2022-12-29T06:29:56;13.23;;;8.77;;
71671;SDS011;62112;45.638;11.714;2022-12-29T06:32:22;12.63;;;8.68;;
71671;SDS011;62112;45.638;11.714;2022-12-29T06:34:48;13.07;;;8.53;;
71671;SDS011;62112;45.638;11.714;2022-12-29T06:37:14;13.40;;;8.63;;
71671;SDS011;62112;45.638;11.714;2022-12-29T06:39:40;12.75;;;8.50;;
71671;SDS011;62112;45.638;11.714;2022-12-29T06:42:08;13.10;;;8.87;;
71671;SDS011;62112;45.638;11.714;2022-12-29T06:44:34;13.13;;;8.68;;
71671;SDS011;62112;45.638;11.714;2022-12-29T06:47:00;12.85;;;7.90;;
71671;SDS011;62112;45.638;11.714;2022-12-29T06:49:26;12.03;;;8.37;;
71671;SDS011;62112;45.638;11.714;2022-12-29T06:51:52;12.00;;;8.23;;
71671;SDS011;62112;45.638;11.714;2022-12-29T06:54:18;12.82;;;8.35;;
71671;SDS011;62112;45.638;11.714;2022-12-29T06:56:43;12.47;;;8.13;;
71671;SDS011;62112;45.638;11.714;2022-12-29T06:59:09;13.70;;;8.55;;
71671;SDS011;62112;45.638;11.714;2022-12-29T07:01:35;13.27;;;8.73;;
71671;SDS011;62112;45.638;11.714;2022-12-29T07:04:03;13.43;;;8.50;;
71671;SDS011;62112;45.638;11.714;2022-12-29T07:06:29;12.30;;;8.10;;
71671;SDS011;62112;45.638;11.714;2022-12-29T07:08:54;13.45;;;8.73;;
71671;SDS011;62112;45.638;11.714;2022-12-29T07:11:22;13.98;;;8.23;;
71671;SDS011;62112;45.638;11.714;2022-12-29T07:13:48;13.03;;;8.53;;
71671;SDS011;62112;45.638;11.714;2022-12-29T07:16:14;12.98;;;8.18;;
71671;SDS011;62112;45.638;11.714;2022-12-29T07:18:41;13.02;;;8.35;;
71671;SDS011;62112;45.638;11.714;2022-12-29T07:21:08;12.05;;;7.88;;
71671;SDS011;62112;45.638;11.714;2022-12-29T07:23:34;12.37;;;8.27;;
71671;SDS011;62112;45.638;11.714;2022-12-29T07:26:04;12.63;;;8.55;;
71671;SDS011;62112;45.638;11.714;2022-12-29T07:28:35;11.85;;;8.25;;
71671;SDS011;62112;45.638;11.714;2022-12-29T07:31:03;13.50;;;8.35;;
71671;SDS011;62112;45.638;11.714;2022-12-29T07:33:36;13.23;;;8.70;;
71671;SDS011;62112;45.638;11.714;2022-12-29T07:36:10;13.33;;;8.50;;
71671;SDS011;62112;45.638;11.714;2022-12-29T07:38:37;12.85;;;8.23;;
71671;SDS011;62112;45.638;11.714;2022-12-29T07:41:04;13.25;;;8.40;;
71671;SDS011;62112;45.638;11.714;2022-12-29T07:43:34;12.18;;;8.18;;
71671;SDS011;62112;45.638;11.714;2022-12-29T07:46:00;12.80;;;8.23;;
71671;SDS011;62112;45.638;11.714;2022-12-29T07:48:26;13.17;;;8.20;;
71671;SDS011;62112;45.638;11.714;2022-12-29T07:50:52;12.15;;;8.25;;
71671;SDS011;62112;45.638;11.714;2022-12-29T07:53:20;14.45;;;8.38;;
71671;SDS011;62112;45.638;11.714;2022-12-29T07:55:46;14.30;;;8.63;;
71671;SDS011;62112;45.638;11.714;2022-12-29T07:58:18;12.40;;;8.18;;
71671;SDS011;62112;45.638;11.714;2022-12-29T08:00:54;13.43;;;7.88;;
71671;SDS011;62112;45.638;11.714;2022-12-29T08:03:21;13.45;;;8.07;;
71671;SDS011;62112;45.638;11.714;2022-12-29T08:05:49;11.77;;;7.70;;
71671;SDS011;62112;45.638;11.714;2022-12-29T08:08:26;11.80;;;8.23;;
71671;SDS011;62112;45.638;11.714;2022-12-29T08:10:52;11.55;;;8.18;;
71671;SDS011;62112;45.638;11.714;2022-12-29T08:13:19;11.95;;;7.97;;
71671;SDS011;62112;45.638;11.714;2022-12-29T08:15:47;12.75;;;8.68;;
71671;SDS011;62112;45.638;11.714;2022-12-29T08:18:16;12.37;;;7.80;;
71671;SDS011;62112;45.638;11.714;2022-12-29T08:20:41;12.20;;;8.10;;
71671;SDS011;62112;45.638;11.714;2022-12-29T08:23:07;13.02;;;7.50;;
71671;SDS011;62112;45.638;11.714;2022-12-29T08:25:33;13.27;;;8.20;;
71671;SDS011;62112;45.638;11.714;2022-12-29T08:27:59;11.25;;;7.55;;
71671;SDS011;62112;45.638;11.714;2022-12-29T08:30:25;11.98;;;7.90;;
71671;SDS011;62112;45.638;11.714;2022-12-29T08:32:51;11.90;;;7.90;;
71671;SDS011;62112;45.638;11.714;2022-12-29T08:35:18;14.00;;;8.30;;
71671;SDS011;62112;45.638;11.714;2022-12-29T08:37:45;10.93;;;8.00;;
71671;SDS011;62112;45.638;11.714;2022-12-29T08:40:11;12.95;;;8.40;;
71671;SDS011;62112;45.638;11.714;2022-12-29T08:42:38;13.35;;;8.07;;
71671;SDS011;62112;45.638;11.714;2022-12-29T08:45:05;11.73;;;7.82;;
71671;SDS011;62112;45.638;11.714;2022-12-29T08:47:34;12.20;;;8.17;;
71671;SDS011;62112;45.638;11.714;2022-12-29T08:50:00;11.70;;;8.10;;
71671;SDS011;62112;45.638;11.714;2022-12-29T08:52:26;13.57;;;8.32;;
71671;SDS011;62112;45.638;11.714;2022-12-29T08:54:52;12.57;;;7.87;;
71671;SDS011;62112;45.638;11.714;2022-12-29T08:57:18;11.88;;;8.10;;
71671;SDS011;62112;45.638;11.714;2022-12-29T08:59:44;12.53;;;8.20;;
71671;SDS011;62112;45.638;11.714;2022-12-29T09:02:11;12.33;;;8.00;;
71671;SDS011;62112;45.638;11.714;2022-12-29T09:04:38;12.18;;;8.20;;
71671;SDS011;62112;45.638;11.714;2022-12-29T09:07:04;13.02;;;8.15;;
71671;SDS011;62112;45.638;11.714;2022-12-29T09:09:31;12.13;;;8.05;;
71671;SDS011;62112;45.638;11.714;2022-12-29T09:11:57;12.93;;;8.10;;
71671;SDS011;62112;45.638;11.714;2022-12-29T09:14:25;12.43;;;8.10;;
71671;SDS011;62112;45.638;11.714;2022-12-29T09:17:00;12.75;;;8.10;;
71671;SDS011;62112;45.638;11.714;2022-12-29T09:19:51;13.90;;;8.00;;
71671;SDS011;62112;45.638;11.714;2022-12-29T09:22:23;14.88;;;7.60;;
71671;SDS011;62112;45.638;11.714;2022-12-29T09:24:50;12.57;;;7.90;;
71671;SDS011;62112;45.638;11.714;2022-12-29T09:27:27;13.93;;;7.72;;
71671;SDS011;62112;45.638;11.714;2022-12-29T09:30:10;12.20;;;7.90;;
71671;SDS011;62112;45.638;11.714;2022-12-29T09:32:41;13.45;;;8.68;;
71671;SDS011;62112;45.638;11.714;2022-12-29T09:35:17;13.50;;;8.55;;
71671;SDS011;62112;45.638;11.714;2022-12-29T09:37:45;13.73;;;9.00;;
71671;SDS011;62112;45.638;11.714;2022-12-29T09:40:27;13.32;;;8.93;;
71671;SDS011;62112;45.638;11.714;2022-12-29T09:49:08;17.85;;;11.20;;
71671;SDS011;62112;45.638;11.714;2022-12-29T09:51:51;17.40;;;11.27;;
71671;SDS011;62112;45.638;11.714;2022-12-29T09:54:24;14.90;;;10.65;;
71671;SDS011;62112;45.638;11.714;2022-12-29T09:57:18;16.50;;;10.55;;
71671;SDS011;62112;45.638;11.714;2022-12-29T09:59:53;16.77;;;11.30;;
71671;SDS011;62112;45.638;11.714;2022-12-29T10:10:54;20.95;;;11.95;;
71671;SDS011;62112;45.638;11.714;2022-12-29T10:13:33;18.48;;;11.68;;
71671;SDS011;62112;45.638;11.714;2022-12-29T10:16:15;17.95;;;11.68;;
71671;SDS011;62112;45.638;11.714;2022-12-29T10:18:51;19.67;;;12.70;;
71671;SDS011;62112;45.638;11.714;2022-12-29T10:24:07;19.50;;;11.93;;
71671;SDS011;62112;45.638;11.714;2022-12-29T10:26:40;18.38;;;12.23;;
71671;SDS011;62112;45.638;11.714;2022-12-29T10:31:48;17.20;;;11.40;;
71671;SDS011;62112;45.638;11.714;2022-12-29T10:34:54;18.83;;;11.52;;
71671;SDS011;62112;45.638;11.714;2022-12-29T10:37:34;20.95;;;11.55;;
71671;SDS011;62112;45.638;11.714;2022-12-29T10:40:25;17.55;;;11.35;;
71671;SDS011;62112;45.638;11.714;2022-12-29T10:42:58;17.75;;;11.63;;
71671;SDS011;62112;45.638;11.714;2022-12-29T10:45:26;15.67;;;11.10;;
71671;SDS011;62112;45.638;11.714;2022-12-29T10:48:03;19.75;;;12.13;;
71671;SDS011;62112;45.638;11.714;2022-12-29T10:50:45;16.33;;;11.70;;
71671;SDS011;62112;45.638;11.714;2022-12-29T10:53:15;17.25;;;11.70;;
71671;SDS011;62112;45.638;11.714;2022-12-29T10:55:45;18.13;;;11.68;;
71671;SDS011;62112;45.638;11.714;2022-12-29T10:58:12;16.80;;;11.47;;
71671;SDS011;62112;45.638;11.714;2022-12-29T11:00:39;16.05;;;11.60;;
71671;SDS011;62112;45.638;11.714;2022-12-29T11:05:52;18.42;;;12.25;;
71671;SDS011;62112;45.638;11.714;2022-12-29T11:08:41;17.30;;;11.55;;
71671;SDS011;62112;45.638;11.714;2022-12-29T11:11:35;17.43;;;11.70;;
71671;SDS011;62112;45.638;11.714;2022-12-29T11:14:07;19.80;;;11.30;;
71671;SDS011;62112;45.638;11.714;2022-12-29T11:16:36;16.75;;;11.68;;
71671;SDS011;62112;45.638;11.714;2022-12-29T11:19:02;15.95;;;11.32;;
71671;SDS011;62112;45.638;11.714;2022-12-29T11:21:32;16.57;;;11.23;;
71671;SDS011;62112;45.638;11.714;2022-12-29T11:24:05;16.83;;;11.77;;
71671;SDS011;62112;45.638;11.714;2022-12-29T11:26:43;16.20;;;11.35;;
71671;SDS011;62112;45.638;11.714;2022-12-29T11:31:57;16.60;;;11.50;;
71671;SDS011;62112;45.638;11.714;2022-12-29T11:34:30;15.67;;;10.77;;
71671;SDS011;62112;45.638;11.714;2022-12-29T11:37:00;15.75;;;11.18;;
71671;SDS011;62112;45.638;11.714;2022-12-29T11:42:14;14.85;;;10.27;;
71671;SDS011;62112;45.638;11.714;2022-12-29T11:44:43;15.38;;;11.00;;
71671;SDS011;62112;45.638;11.714;2022-12-29T11:47:27;16.40;;;10.83;;
71671;SDS011;62112;45.638;11.714;2022-12-29T11:49:59;16.70;;;10.88;;
71671;SDS011;62112;45.638;11.714;2022-12-29T11:52:29;15.68;;;10.45;;
71671;SDS011;62112;45.638;11.714;2022-12-29T11:55:00;16.17;;;11.00;;
71671;SDS011;62112;45.638;11.714;2022-12-29T11:57:29;15.68;;;10.70;;
71671;SDS011;62112;45.638;11.714;2022-12-29T11:59:58;15.03;;;10.80;;
71671;SDS011;62112;45.638;11.714;2022-12-29T12:02:34;16.00;;;10.85;;
71671;SDS011;62112;45.638;11.714;2022-12-29T12:05:13;13.80;;;9.90;;
71671;SDS011;62112;45.638;11.714;2022-12-29T12:10:23;15.15;;;10.38;;
71671;SDS011;62112;45.638;11.714;2022-12-29T12:15:31;13.75;;;9.80;;
71671;SDS011;62112;45.638;11.714;2022-12-29T12:18:28;13.75;;;9.65;;
71671;SDS011;62112;45.638;11.714;2022-12-29T12:21:38;14.23;;;9.75;;
71671;SDS011;62112;45.638;11.714;2022-12-29T12:24:20;14.68;;;9.90;;
71671;SDS011;62112;45.638;11.714;2022-12-29T12:26:53;16.17;;;10.03;;
71671;SDS011;62112;45.638;11.714;2022-12-29T12:29:28;13.57;;;9.45;;
71671;SDS011;62112;45.638;11.714;2022-12-29T12:35:13;13.63;;;9.25;;
71671;SDS011;62112;45.638;11.714;2022-12-29T12:40:30;14.90;;;9.87;;
71671;SDS011;62112;45.638;11.714;2022-12-29T12:45:59;15.38;;;9.35;;
71671;SDS011;62112;45.638;11.714;2022-12-29T12:51:46;14.45;;;9.85;;
71671;SDS011;62112;45.638;11.714;2022-12-29T12:59:56;14.35;;;9.38;;
71671;SDS011;62112;45.638;11.714;2022-12-29T13:09:02;14.80;;;9.33;;
71671;SDS011;62112;45.638;11.714;2022-12-29T13:11:38;14.48;;;9.50;;
71671;SDS011;62112;45.638;11.714;2022-12-29T13:17:30;15.65;;;9.52;;
71671;SDS011;62112;45.638;11.714;2022-12-29T13:23:01;15.83;;;9.37;;
71671;SDS011;62112;45.638;11.714;2022-12-29T13:28:46;14.70;;;8.98;;
71671;SDS011;62112;45.638;11.714;2022-12-29T13:31:42;14.63;;;9.70;;
71671;SDS011;62112;45.638;11.714;2022-12-29T13:34:44;15.13;;;9.65;;
71671;SDS011;62112;45.638;11.714;2022-12-29T13:37:29;13.03;;;9.00;;
71671;SDS011;62112;45.638;11.714;2022-12-29T13:39:59;13.32;;;9.27;;
71671;SDS011;62112;45.638;11.714;2022-12-29T13:42:36;14.60;;;9.13;;
71671;SDS011;62112;45.638;11.714;2022-12-29T13:45:06;12.60;;;8.98;;
71671;SDS011;62112;45.638;11.714;2022-12-29T13:47:47;13.63;;;9.02;;
71671;SDS011;62112;45.638;11.714;2022-12-29T13:50:23;14.73;;;9.30;;
71671;SDS011;62112;45.638;11.714;2022-12-29T13:55:47;14.48;;;8.68;;
71671;SDS011;62112;45.638;11.714;2022-12-29T13:58:44;14.10;;;8.65;;
71671;SDS011;62112;45.638;11.714;2022-12-29T14:03:54;13.90;;;9.17;;
71671;SDS011;62112;45.638;11.714;2022-12-29T14:08:50;13.45;;;8.57;;
71671;SDS011;62112;45.638;11.714;2022-12-29T14:11:32;12.00;;;8.43;;
71671;SDS011;62112;45.638;11.714;2022-12-29T14:16:53;12.60;;;8.20;;
71671;SDS011;62112;45.638;11.714;2022-12-29T14:19:21;13.65;;;8.98;;
71671;SDS011;62112;45.638;11.714;2022-12-29T14:21:52;14.90;;;8.73;;
71671;SDS011;62112;45.638;11.714;2022-12-29T14:27:42;14.73;;;8.18;;
71671;SDS011;62112;45.638;11.714;2022-12-29T14:29:50;13.67;;;8.40;;
71671;SDS011;62112;45.638;11.714;2022-12-29T14:34:58;12.50;;;7.90;;
71671;SDS011;62112;45.638;11.714;2022-12-29T14:37:32;14.15;;;8.60;;
71671;SDS011;62112;45.638;11.714;2022-12-29T14:40:06;12.13;;;8.10;;
71671;SDS011;62112;45.638;11.714;2022-12-29T14:42:47;11.83;;;7.87;;
71671;SDS011;62112;45.638;11.714;2022-12-29T14:47:48;13.15;;;8.35;;
71671;SDS011;62112;45.638;11.714;2022-12-29T14:50:26;12.05;;;7.93;;
71671;SDS011;62112;45.638;11.714;2022-12-29T14:53:00;11.90;;;7.97;;
71671;SDS011;62112;45.638;11.714;2022-12-29T14:55:32;15.00;;;8.33;;
71671;SDS011;62112;45.638;11.714;2022-12-29T14:58:03;12.88;;;8.07;;
71671;SDS011;62112;45.638;11.714;2022-12-29T15:00:34;13.27;;;8.25;;
71671;SDS011;62112;45.638;11.714;2022-12-29T15:08:18;11.93;;;8.10;;
71671;SDS011;62112;45.638;11.714;2022-12-29T15:10:53;12.95;;;8.23;;
71671;SDS011;62112;45.638;11.714;2022-12-29T15:13:21;13.27;;;8.45;;
71671;SDS011;62112;45.638;11.714;2022-12-29T15:16:01;13.32;;;8.30;;
71671;SDS011;62112;45.638;11.714;2022-12-29T15:18:31;16.73;;;8.60;;
71671;SDS011;62112;45.638;11.714;2022-12-29T15:20:59;12.03;;;8.23;;
71671;SDS011;62112;45.638;11.714;2022-12-29T15:23:27;14.60;;;8.30;;
71671;SDS011;62112;45.638;11.714;2022-12-29T15:25:56;12.73;;;8.48;;
71671;SDS011;62112;45.638;11.714;2022-12-29T15:28:24;12.48;;;8.45;;
71671;SDS011;62112;45.638;11.714;2022-12-29T15:30:54;15.07;;;8.80;;
71671;SDS011;62112;45.638;11.714;2022-12-29T15:33:28;13.40;;;8.87;;
71671;SDS011;62112;45.638;11.714;2022-12-29T15:35:55;12.60;;;8.80;;
71671;SDS011;62112;45.638;11.714;2022-12-29T15:38:24;13.73;;;8.98;;
71671;SDS011;62112;45.638;11.714;2022-12-29T15:40:55;12.32;;;8.38;;
71671;SDS011;62112;45.638;11.714;2022-12-29T15:46:09;13.23;;;8.50;;
71671;SDS011;62112;45.638;11.714;2022-12-29T15:48:37;13.30;;;8.50;;
71671;SDS011;62112;45.638;11.714;2022-12-29T15:51:11;13.20;;;8.68;;
71671;SDS011;62112;45.638;11.714;2022-12-29T15:53:49;13.57;;;9.07;;
71671;SDS011;62112;45.638;11.714;2022-12-29T15:56:16;15.35;;;8.75;;
71671;SDS011;62112;45.638;11.714;2022-12-29T15:58:44;13.23;;;8.57;;
71671;SDS011;62112;45.638;11.714;2022-12-29T16:01:19;12.40;;;8.90;;
71671;SDS011;62112;45.638;11.714;2022-12-29T16:04:03;13.13;;;8.38;;
71671;SDS011;62112;45.638;11.714;2022-12-29T16:06:32;13.45;;;8.35;;
71671;SDS011;62112;45.638;11.714;2022-12-29T16:09:14;12.50;;;8.57;;
71671;SDS011;62112;45.638;11.714;2022-12-29T16:11:50;12.93;;;8.27;;
71671;SDS011;62112;45.638;11.714;2022-12-29T16:14:20;13.80;;;8.65;;
71671;SDS011;62112;45.638;11.714;2022-12-29T16:17:21;14.27;;;9.30;;
71671;SDS011;62112;45.638;11.714;2022-12-29T16:20:01;15.85;;;8.05;;
71671;SDS011;62112;45.638;11.714;2022-12-29T16:22:38;13.55;;;8.43;;
71671;SDS011;62112;45.638;11.714;2022-12-29T16:25:06;15.53;;;8.80;;
71671;SDS011;62112;45.638;11.714;2022-12-29T16:27:41;12.98;;;8.82;;
71671;SDS011;62112;45.638;11.714;2022-12-29T16:32:59;15.18;;;9.02;;
71671;SDS011;62112;45.638;11.714;2022-12-29T16:35:27;14.65;;;9.27;;
71671;SDS011;62112;45.638;11.714;2022-12-29T16:38:14;15.73;;;9.23;;
71671;SDS011;62112;45.638;11.714;2022-12-29T16:40:50;15.93;;;9.27;;
71671;SDS011;62112;45.638;11.714;2022-12-29T16:43:24;14.48;;;9.00;;
71671;SDS011;62112;45.638;11.714;2022-12-29T16:48:36;16.00;;;8.98;;
71671;SDS011;62112;45.638;11.714;2022-12-29T16:51:14;15.80;;;9.17;;
71671;SDS011;62112;45.638;11.714;2022-12-29T16:53:50;13.80;;;8.77;;
71671;SDS011;62112;45.638;11.714;2022-12-29T16:56:21;15.55;;;8.70;;
71671;SDS011;62112;45.638;11.714;2022-12-29T16:58:52;14.75;;;8.40;;